createdAt,value
2022-12-31T00:00:47.023Z,2.58
2022-12-31T00:03:50.297Z,2.61
2022-12-31T00:06:52.876Z,2.59
2022-12-31T00:09:57.693Z,2.57
2022-12-31T00:13:00.265Z,2.58
2022-12-31T00:16:15.800Z,2.58
2022-12-31T00:19:18.348Z,2.53
2022-12-31T00:22:21.225Z,2.51
2022-12-31T00:25:23.812Z,2.55
2022-12-31T00:28:26.777Z,2.57
2022-12-31T00:31:35.828Z,2.56
2022-12-31T00:34:38.671Z,2.61
2022-12-31T00:37:41.272Z,2.61
2022-12-31T00:40:44.147Z,2.62
2022-12-31T00:43:47.345Z,2.65
2022-12-31T00:46:50.420Z,2.63
2022-12-31T00:49:53.185Z,2.66
2022-12-31T00:52:56.002Z,2.67
2022-12-31T00:56:11.253Z,2.69
2022-12-31T00:59:14.141Z,2.67
2022-12-31T01:02:16.853Z,2.68
2022-12-31T01:05:20.080Z,2.67
2022-12-31T01:08:22.842Z,2.70
2022-12-31T01:11:29.451Z,2.72
2022-12-31T01:14:33.942Z,2.70
2022-12-31T01:17:36.820Z,2.73
2022-12-31T01:20:43.036Z,2.74
2022-12-31T01:23:46.096Z,2.75
2022-12-31T01:26:48.861Z,2.74
2022-12-31T01:29:52.369Z,2.75
2022-12-31T01:32:54.998Z,2.76
2022-12-31T01:36:05.618Z,2.78
2022-12-31T01:39:09.327Z,2.77
2022-12-31T01:42:12.370Z,2.84
2022-12-31T01:45:15.030Z,2.87
2022-12-31T01:48:22.598Z,2.84
2022-12-31T01:51:27.872Z,2.84
2022-12-31T01:54:34.762Z,2.83
2022-12-31T01:57:37.730Z,2.81
2022-12-31T02:00:40.657Z,2.79
2022-12-31T02:03:43.560Z,2.80
2022-12-31T02:06:50.595Z,2.75
2022-12-31T02:09:53.858Z,2.74
2022-12-31T02:12:56.612Z,2.72
2022-12-31T02:16:05.306Z,2.73
2022-12-31T02:19:43.699Z,2.79
2022-12-31T02:23:24.084Z,2.76
2022-12-31T02:26:55.890Z,2.77
2022-12-31T02:30:09.299Z,2.75
2022-12-31T02:33:17.817Z,2.75
2022-12-31T02:36:26.610Z,2.73
2022-12-31T02:39:29.498Z,2.71
2022-12-31T02:42:32.473Z,2.72
2022-12-31T02:45:41.739Z,2.70
2022-12-31T02:48:53.714Z,2.69
2022-12-31T02:52:10.337Z,2.67
2022-12-31T02:55:23.755Z,2.67
2022-12-31T02:58:46.133Z,2.66
2022-12-31T03:02:13.930Z,2.65
2022-12-31T03:05:19.588Z,2.62
2022-12-31T03:08:23.814Z,2.64
2022-12-31T03:11:46.647Z,2.61
2022-12-31T03:14:49.678Z,2.61
2022-12-31T03:18:01.488Z,2.58
2022-12-31T03:21:29.398Z,2.52
2022-12-31T03:24:50.518Z,2.61
2022-12-31T03:27:53.862Z,2.63
2022-12-31T03:30:59.514Z,2.64
2022-12-31T03:34:02.383Z,2.65
2022-12-31T03:37:05.024Z,2.71
2022-12-31T03:40:10.341Z,2.65
2022-12-31T03:43:14.852Z,2.66
2022-12-31T03:46:17.770Z,2.69
2022-12-31T03:49:20.391Z,2.66
2022-12-31T03:52:23.508Z,2.68
2022-12-31T03:55:26.133Z,2.70
2022-12-31T03:58:29.523Z,2.68
2022-12-31T04:01:32.263Z,2.70
2022-12-31T04:04:35.343Z,2.72
2022-12-31T04:07:38.434Z,2.73
2022-12-31T04:10:41.188Z,2.73
2022-12-31T04:13:43.742Z,2.74
2022-12-31T04:16:46.875Z,2.76
2022-12-31T04:19:49.746Z,2.78
2022-12-31T04:22:52.603Z,2.78
2022-12-31T04:25:55.193Z,2.80
2022-12-31T04:28:58.009Z,2.79
2022-12-31T04:32:00.653Z,2.82
2022-12-31T04:35:03.951Z,2.84
2022-12-31T04:38:06.813Z,2.83
2022-12-31T04:41:19.753Z,2.82
2022-12-31T04:44:22.486Z,2.84
2022-12-31T04:47:25.327Z,2.84
2022-12-31T04:50:27.814Z,2.85
2022-12-31T04:53:30.715Z,2.87
2022-12-31T04:56:36.711Z,2.91
2022-12-31T04:59:39.655Z,2.90
2022-12-31T05:02:42.306Z,2.89
2022-12-31T05:05:45.331Z,2.88
2022-12-31T05:08:48.441Z,2.87
2022-12-31T05:11:51.285Z,2.83
2022-12-31T05:14:53.861Z,2.85
2022-12-31T05:17:56.643Z,2.89
2022-12-31T05:20:59.746Z,2.85
2022-12-31T05:24:02.765Z,2.85
2022-12-31T05:27:05.296Z,2.85
2022-12-31T05:30:08.742Z,2.81
2022-12-31T05:33:11.369Z,2.82
2022-12-31T05:36:14.821Z,2.81
2022-12-31T05:39:18.470Z,2.80
2022-12-31T05:42:21.914Z,2.74
2022-12-31T05:45:30.514Z,2.71
2022-12-31T05:48:34.206Z,2.69
2022-12-31T05:51:36.735Z,2.71
2022-12-31T05:54:39.676Z,2.73
2022-12-31T05:57:42.312Z,2.72
2022-12-31T06:00:46.148Z,2.75
2022-12-31T06:03:49.070Z,2.78
2022-12-31T06:06:51.828Z,2.80
2022-12-31T06:09:55.017Z,2.81
2022-12-31T06:12:57.743Z,2.80
2022-12-31T06:16:08.030Z,2.82
2022-12-31T06:19:10.717Z,2.83
2022-12-31T06:22:13.975Z,2.83
2022-12-31T06:25:16.494Z,2.85
2022-12-31T06:28:20.596Z,2.86
2022-12-31T06:31:23.439Z,2.89
2022-12-31T06:34:26.380Z,2.90
2022-12-31T06:37:28.972Z,2.90
2022-12-31T06:40:31.887Z,2.91
2022-12-31T06:43:35.304Z,2.92
2022-12-31T06:46:38.284Z,2.92
2022-12-31T06:49:40.936Z,2.94
2022-12-31T06:52:44.038Z,2.93
2022-12-31T06:55:48.737Z,2.95
2022-12-31T06:58:52.443Z,2.93
2022-12-31T07:02:13.635Z,3.00
2022-12-31T07:05:35.379Z,3.04
2022-12-31T07:08:49.728Z,3.06
2022-12-31T07:12:12.804Z,3.09
2022-12-31T07:15:21.322Z,2.99
2022-12-31T07:18:31.390Z,3.13
2022-12-31T07:21:37.578Z,3.19
2022-12-31T07:24:40.795Z,3.18
2022-12-31T07:27:45.587Z,3.26
2022-12-31T07:31:17.116Z,3.27
2022-12-31T07:34:25.488Z,3.32
2022-12-31T07:37:49.615Z,3.42
2022-12-31T07:41:16.461Z,3.47
2022-12-31T07:44:22.173Z,3.52
2022-12-31T07:47:27.742Z,3.54
2022-12-31T07:50:31.071Z,3.55
2022-12-31T07:53:33.918Z,3.58
2022-12-31T07:56:36.856Z,3.65
2022-12-31T08:00:01.237Z,3.75
2022-12-31T08:03:34.667Z,3.83
2022-12-31T08:07:08.473Z,3.87
2022-12-31T08:10:23.215Z,3.88
2022-12-31T08:13:26.925Z,3.90
2022-12-31T08:16:30.348Z,3.96
2022-12-31T08:19:33.745Z,3.98
2022-12-31T08:22:45.176Z,3.99
2022-12-31T08:25:50.665Z,4.20
2022-12-31T08:28:53.188Z,4.33
2022-12-31T08:32:04.893Z,4.44
2022-12-31T08:35:44.856Z,4.61
2022-12-31T08:39:13.783Z,4.75
2022-12-31T08:42:42.235Z,4.78
2022-12-31T08:45:53.195Z,4.94
2022-12-31T08:48:56.131Z,5.04
2022-12-31T08:52:00.046Z,5.08
2022-12-31T08:55:03.190Z,5.00
2022-12-31T08:58:19.157Z,5.09
2022-12-31T09:01:25.345Z,5.17
2022-12-31T09:04:47.869Z,5.05
2022-12-31T09:08:18.314Z,5.05
2022-12-31T09:11:28.219Z,5.16
2022-12-31T09:14:44.252Z,5.16
2022-12-31T09:17:50.162Z,5.23
2022-12-31T09:20:53.117Z,5.19
2022-12-31T09:23:56.231Z,5.19
2022-12-31T09:27:01.705Z,5.29
2022-12-31T09:30:16.398Z,5.26
2022-12-31T09:33:42.568Z,5.32
2022-12-31T09:36:49.106Z,5.32
2022-12-31T09:39:52.275Z,5.24
2022-12-31T09:43:36.169Z,5.30
2022-12-31T09:47:11.999Z,5.42
2022-12-31T09:50:42.284Z,5.46
2022-12-31T09:54:00.158Z,5.48
2022-12-31T09:57:17.901Z,5.50
2022-12-31T10:00:22.854Z,5.43
2022-12-31T10:03:35.268Z,5.38
2022-12-31T10:06:57.567Z,5.40
2022-12-31T10:10:12.898Z,5.53
2022-12-31T10:13:20.593Z,5.62
2022-12-31T10:16:43.804Z,5.60
2022-12-31T10:20:18.575Z,5.71
2022-12-31T10:23:21.384Z,5.90
2022-12-31T10:26:27.474Z,6.00
2022-12-31T10:29:49.868Z,6.19
2022-12-31T10:33:16.783Z,6.21
2022-12-31T10:36:57.290Z,6.26
2022-12-31T10:40:09.095Z,6.37
2022-12-31T10:43:38.418Z,6.41
2022-12-31T10:47:02.934Z,6.33
2022-12-31T10:50:38.545Z,6.35
2022-12-31T10:53:59.651Z,6.31
2022-12-31T10:57:24.141Z,6.35
2022-12-31T11:00:30.612Z,6.30
2022-12-31T11:03:42.438Z,6.23
2022-12-31T11:07:24.033Z,6.21
2022-12-31T11:10:34.505Z,6.20
2022-12-31T11:14:05.016Z,6.19
2022-12-31T11:17:21.538Z,6.19
2022-12-31T11:20:39.222Z,6.42
2022-12-31T11:24:03.444Z,6.46
2022-12-31T11:27:34.508Z,6.51
2022-12-31T11:30:51.695Z,6.54
2022-12-31T11:34:12.778Z,6.71
2022-12-31T11:37:29.564Z,6.75
2022-12-31T11:40:54.285Z,6.85
2022-12-31T11:44:02.138Z,6.95
2022-12-31T11:47:29.513Z,7.05
2022-12-31T11:50:51.099Z,7.24
2022-12-31T11:54:08.981Z,7.37
2022-12-31T11:57:29.919Z,7.53
2022-12-31T12:00:32.967Z,7.49
2022-12-31T12:03:41.038Z,7.50
2022-12-31T12:06:45.702Z,7.63
2022-12-31T12:09:49.306Z,7.77
2022-12-31T12:12:53.402Z,7.54
2022-12-31T12:15:58.609Z,7.58
2022-12-31T12:19:01.285Z,7.50
2022-12-31T12:22:21.167Z,7.43
2022-12-31T12:25:26.606Z,7.45
2022-12-31T12:28:31.557Z,7.29
2022-12-31T12:31:34.335Z,7.30
2022-12-31T12:34:43.123Z,7.25
2022-12-31T12:37:58.913Z,7.21
2022-12-31T12:41:05.189Z,7.16
2022-12-31T12:44:14.328Z,7.09
2022-12-31T12:47:18.705Z,7.04
2022-12-31T12:50:24.269Z,6.97
2022-12-31T12:53:55.959Z,6.98
2022-12-31T12:57:25.090Z,7.00
2022-12-31T13:00:46.833Z,7.04
2022-12-31T13:04:33.484Z,7.01
2022-12-31T13:07:45.703Z,6.97
2022-12-31T13:11:26.234Z,7.07
2022-12-31T13:14:32.219Z,7.09
2022-12-31T13:18:09.512Z,7.08
2022-12-31T13:21:13.067Z,7.09
2022-12-31T13:24:15.588Z,7.14
2022-12-31T13:27:39.159Z,7.24
2022-12-31T13:30:47.689Z,7.23
2022-12-31T13:33:54.908Z,7.23
2022-12-31T13:37:00.113Z,7.35
2022-12-31T13:40:06.856Z,7.23
2022-12-31T13:43:21.261Z,7.20
2022-12-31T13:46:23.946Z,7.20
2022-12-31T13:49:34.219Z,7.15
2022-12-31T13:53:04.774Z,7.09
2022-12-31T13:56:17.004Z,7.12
2022-12-31T13:59:29.028Z,7.13
2022-12-31T14:02:40.135Z,7.25
2022-12-31T14:05:53.906Z,7.23
2022-12-31T14:08:56.501Z,7.24
2022-12-31T14:12:08.770Z,7.11
2022-12-31T14:15:16.407Z,7.07
2022-12-31T14:18:26.677Z,7.01
2022-12-31T14:21:40.060Z,7.04
2022-12-31T14:24:48.410Z,7.07
2022-12-31T14:27:52.676Z,6.95
2022-12-31T14:31:39.454Z,6.92
2022-12-31T14:35:06.909Z,6.93
2022-12-31T14:38:15.858Z,6.94
2022-12-31T14:41:39.306Z,7.03
2022-12-31T14:45:03.797Z,7.02
2022-12-31T14:48:29.665Z,6.84
2022-12-31T14:51:35.298Z,6.85
2022-12-31T14:54:38.152Z,6.94
2022-12-31T14:58:17.143Z,6.90
2022-12-31T15:01:10.329Z,6.91
2022-12-31T15:04:16.532Z,7.01
2022-12-31T15:07:31.395Z,6.96
2022-12-31T15:10:59.768Z,6.96
2022-12-31T15:14:24.162Z,7.03
2022-12-31T15:17:29.657Z,7.04
2022-12-31T15:21:05.630Z,6.97
2022-12-31T15:24:23.267Z,7.08
2022-12-31T15:27:38.196Z,7.04
2022-12-31T15:30:46.794Z,7.19
2022-12-31T15:33:57.826Z,7.27
2022-12-31T15:37:28.387Z,7.33
2022-12-31T15:40:44.952Z,7.36
2022-12-31T15:43:53.205Z,7.38
2022-12-31T15:47:04.189Z,7.39
2022-12-31T15:50:15.822Z,7.40
2022-12-31T15:53:34.734Z,7.28
2022-12-31T15:56:41.675Z,7.28
2022-12-31T15:59:45.082Z,7.12
2022-12-31T16:02:48.836Z,6.96
2022-12-31T16:05:52.713Z,6.83
2022-12-31T16:08:55.730Z,6.66
2022-12-31T16:12:01.134Z,6.54
2022-12-31T16:15:04.099Z,6.46
2022-12-31T16:18:11.235Z,6.44
2022-12-31T16:21:24.007Z,6.42
2022-12-31T16:24:31.877Z,6.40
2022-12-31T16:27:35.334Z,6.37
2022-12-31T16:30:40.245Z,6.40
2022-12-31T16:33:42.980Z,6.40
2022-12-31T16:37:18.062Z,6.41
2022-12-31T16:40:22.716Z,6.36
2022-12-31T16:43:38.064Z,6.29
2022-12-31T16:46:40.962Z,6.26
2022-12-31T16:49:47.547Z,6.21
2022-12-31T16:52:57.851Z,6.11
2022-12-31T16:56:03.143Z,6.03
2022-12-31T16:59:17.631Z,6.04
2022-12-31T17:02:30.803Z,5.97
2022-12-31T17:05:36.271Z,5.94
2022-12-31T17:08:48.468Z,5.90
2022-12-31T17:11:55.352Z,5.91
2022-12-31T17:15:01.969Z,5.92
2022-12-31T17:18:04.789Z,5.98
2022-12-31T17:21:10.999Z,5.91
2022-12-31T17:24:13.676Z,5.91
2022-12-31T17:27:16.917Z,6.00
2022-12-31T17:30:21.418Z,5.95
2022-12-31T17:33:24.118Z,5.98
2022-12-31T17:36:27.783Z,6.08
2022-12-31T17:39:46.219Z,6.05
2022-12-31T17:42:48.986Z,6.01
2022-12-31T17:45:52.157Z,6.00
2022-12-31T17:49:01.983Z,6.00
2022-12-31T17:52:10.280Z,5.91
2022-12-31T17:55:12.834Z,5.91
2022-12-31T17:58:42.521Z,5.89
2022-12-31T18:01:45.416Z,5.78
2022-12-31T18:04:48.325Z,5.68
2022-12-31T18:07:53.487Z,5.61
2022-12-31T18:10:56.338Z,5.53
2022-12-31T18:13:59.151Z,5.44
2022-12-31T18:17:02.124Z,5.40
2022-12-31T18:20:06.092Z,5.34
2022-12-31T18:23:24.196Z,5.16
2022-12-31T18:26:28.065Z,5.14
2022-12-31T18:29:30.997Z,5.06
2022-12-31T18:32:34.311Z,4.99
2022-12-31T18:38:59.877Z,4.95
2022-12-31T18:42:02.903Z,4.98
2022-12-31T18:45:13.983Z,4.90
2022-12-31T18:48:17.914Z,4.76
2022-12-31T18:51:29.287Z,4.73
2022-12-31T18:54:34.029Z,4.73
2022-12-31T18:57:36.538Z,4.76
2022-12-31T19:00:39.556Z,4.63
2022-12-31T19:03:42.140Z,4.62
2022-12-31T19:06:45.227Z,4.63
2022-12-31T19:09:51.386Z,4.56
2022-12-31T19:12:57.594Z,4.57
2022-12-31T19:16:01.327Z,4.53
2022-12-31T19:19:08.569Z,4.42
2022-12-31T19:22:15.479Z,4.39
2022-12-31T19:25:24.358Z,4.42
2022-12-31T19:28:28.510Z,4.38
2022-12-31T19:31:31.485Z,4.37
2022-12-31T19:34:34.002Z,4.34
2022-12-31T19:37:36.806Z,4.30
2022-12-31T19:40:40.483Z,4.30
2022-12-31T19:43:43.400Z,4.20
2022-12-31T19:46:47.190Z,4.13
2022-12-31T19:49:50.127Z,4.15
2022-12-31T19:52:57.753Z,4.11
2022-12-31T19:56:00.532Z,4.06
2022-12-31T19:59:07.770Z,3.98
2022-12-31T20:02:10.740Z,4.01
2022-12-31T20:05:15.576Z,3.94
2022-12-31T20:08:20.321Z,4.04
2022-12-31T20:11:24.230Z,4.09
2022-12-31T20:14:26.854Z,4.06
2022-12-31T20:17:29.937Z,4.05
2022-12-31T20:20:32.684Z,4.03
2022-12-31T20:23:35.556Z,3.94
2022-12-31T20:26:38.267Z,3.77
2022-12-31T20:29:41.854Z,3.94
2022-12-31T20:32:46.170Z,3.93
2022-12-31T20:35:49.142Z,3.90
2022-12-31T20:38:51.940Z,3.87
2022-12-31T20:41:54.801Z,3.78
2022-12-31T20:44:57.340Z,3.77
2022-12-31T20:48:00.194Z,3.74
2022-12-31T20:51:02.809Z,3.66
2022-12-31T20:54:08.605Z,3.70
2022-12-31T20:57:11.182Z,3.68
2022-12-31T21:00:15.394Z,3.63
2022-12-31T21:03:53.823Z,3.66
2022-12-31T21:06:41.590Z,3.61
2022-12-31T21:09:44.137Z,3.52
2022-12-31T21:12:53.278Z,3.58
2022-12-31T21:15:57.635Z,3.53
2022-12-31T21:19:01.345Z,3.50
2022-12-31T21:22:03.976Z,3.49
2022-12-31T21:25:07.171Z,3.47
2022-12-31T21:28:10.457Z,3.47
2022-12-31T21:34:18.597Z,3.62
2022-12-31T21:37:21.409Z,3.63
2022-12-31T21:40:24.023Z,3.64
2022-12-31T21:43:27.183Z,3.58
2022-12-31T21:46:29.964Z,3.53
2022-12-31T21:49:32.879Z,3.61
2022-12-31T21:52:35.912Z,3.58
2022-12-31T21:55:57.351Z,3.65
2022-12-31T21:59:19.172Z,3.59
2022-12-31T22:02:41.127Z,3.58
2022-12-31T22:06:28.821Z,3.59
2022-12-31T22:09:31.366Z,3.65
2022-12-31T22:12:34.558Z,3.57
2022-12-31T22:15:37.295Z,3.55
2022-12-31T22:18:42.899Z,3.50
2022-12-31T22:21:46.195Z,3.48
2022-12-31T22:24:49.096Z,3.50
2022-12-31T22:28:27.672Z,3.48
2022-12-31T22:31:24.577Z,3.45
2022-12-31T22:34:27.424Z,3.44
2022-12-31T22:41:01.344Z,3.38
2022-12-31T22:44:05.116Z,3.33
2022-12-31T22:47:07.881Z,3.27
2022-12-31T22:50:10.709Z,3.24
2022-12-31T22:53:13.257Z,3.18
2022-12-31T22:56:17.763Z,3.19
2022-12-31T22:59:20.371Z,3.16
2022-12-31T23:02:23.415Z,3.14
2022-12-31T23:05:25.999Z,3.07
2022-12-31T23:08:28.829Z,3.11
2022-12-31T23:11:32.533Z,3.02
2022-12-31T23:14:53.861Z,3.00
2022-12-31T23:18:15.070Z,3.01
2022-12-31T23:21:36.463Z,2.93
2022-12-31T23:24:39.297Z,2.90
2022-12-31T23:27:42.255Z,2.85
2022-12-31T23:30:45.415Z,2.90
2022-12-31T23:33:48.592Z,2.80
2022-12-31T23:36:51.207Z,2.81
2022-12-31T23:39:54.125Z,2.79
2022-12-31T23:42:56.696Z,2.77
2022-12-31T23:45:59.691Z,2.77
2022-12-31T23:49:02.518Z,2.74
2022-12-31T23:52:05.506Z,2.73
2022-12-31T23:55:08.417Z,2.69
2022-12-31T23:58:11.321Z,2.65
